createdAt,value
2023-01-17T00:05:20.531Z,11.73
2023-01-17T00:10:49.809Z,11.52
2023-01-17T00:16:14.235Z,17.48
2023-01-17T00:21:54.641Z,13.68
2023-01-17T00:27:16.718Z,14.45
2023-01-17T00:32:40.162Z,18.17
2023-01-17T00:38:03.488Z,12.43
2023-01-17T00:43:44.949Z,13.85
2023-01-17T00:49:27.461Z,14.90
2023-01-17T00:55:08.191Z,15.30
2023-01-17T01:00:48.999Z,18.40
2023-01-17T01:06:31.078Z,15.98
2023-01-17T01:12:11.768Z,21.13
2023-01-17T01:17:58.009Z,16.55
2023-01-17T01:23:46.713Z,17.23
2023-01-17T01:29:32.666Z,13.93
2023-01-17T01:35:01.491Z,18.33
2023-01-17T01:40:31.891Z,16.03
2023-01-17T01:46:00.672Z,17.08
2023-01-17T01:51:33.020Z,12.98
2023-01-17T01:57:04.596Z,14.80
2023-01-17T02:02:33.265Z,13.40
2023-01-17T02:08:03.499Z,16.02
2023-01-17T02:13:33.958Z,11.45
2023-01-17T02:19:12.028Z,12.57
2023-01-17T02:24:51.675Z,12.25
2023-01-17T02:35:56.213Z,12.47
2023-01-17T02:41:28.924Z,11.23
2023-01-17T02:46:58.063Z,13.35
2023-01-17T02:52:45.586Z,9.97
2023-01-17T02:58:20.303Z,12.45
2023-01-17T03:03:50.645Z,11.80
2023-01-17T03:09:21.449Z,13.73
2023-01-17T03:14:50.481Z,11.25
2023-01-17T03:20:21.582Z,12.50
2023-01-17T03:25:52.622Z,10.25
2023-01-17T03:31:21.448Z,12.40
2023-01-17T03:36:50.201Z,14.27
2023-01-17T03:42:19.531Z,14.85
2023-01-17T03:47:48.911Z,15.07
2023-01-17T03:53:17.192Z,13.20
2023-01-17T03:58:46.841Z,12.95
2023-01-17T04:04:16.029Z,17.83
2023-01-17T10:04:12.010Z,31.67
2023-01-17T10:09:46.514Z,40.10
2023-01-17T10:15:27.659Z,33.72
2023-01-17T10:21:00.244Z,33.83
2023-01-17T10:26:28.980Z,39.97
2023-01-17T10:32:00.331Z,42.88
2023-01-17T10:37:37.760Z,40.15
2023-01-17T10:43:11.225Z,34.45
2023-01-17T10:48:41.243Z,36.50
2023-01-17T10:54:16.302Z,31.65
2023-01-17T10:59:45.328Z,31.63
2023-01-17T11:05:19.447Z,35.20
2023-01-17T11:10:50.923Z,34.30
2023-01-17T11:16:21.157Z,43.42
2023-01-17T11:21:51.325Z,43.42
2023-01-17T11:27:26.883Z,44.65
2023-01-17T11:32:57.595Z,37.75
2023-01-17T11:38:26.398Z,40.05
2023-01-17T11:43:58.838Z,34.03
2023-01-17T11:49:27.157Z,39.40
2023-01-17T11:54:56.415Z,43.35
2023-01-17T12:00:31.828Z,38.97
2023-01-17T12:06:04.657Z,38.97
2023-01-17T12:11:38.220Z,44.70
2023-01-17T12:17:14.065Z,53.10
2023-01-17T12:22:58.030Z,48.53
2023-01-17T12:28:33.551Z,50.45
2023-01-17T12:34:08.533Z,44.45
2023-01-17T12:39:38.365Z,48.47
2023-01-17T12:45:10.508Z,43.55
2023-01-17T12:50:42.570Z,40.83
2023-01-17T12:56:15.712Z,41.00
2023-01-17T13:01:45.332Z,45.92
2023-01-17T19:15:39.557Z,40.38
2023-01-17T19:21:09.898Z,35.15
2023-01-17T19:26:37.735Z,38.30
2023-01-17T19:32:11.683Z,42.57
2023-01-17T19:37:40.668Z,41.10
2023-01-17T19:43:09.898Z,48.40
2023-01-17T19:48:40.841Z,45.42
2023-01-17T19:54:11.634Z,58.05
2023-01-17T19:59:40.556Z,42.95
2023-01-17T20:05:11.051Z,46.73
2023-01-17T20:10:39.588Z,50.10
2023-01-17T20:16:09.582Z,48.33
2023-01-17T20:21:39.668Z,44.83
2023-01-17T20:27:08.607Z,47.33
2023-01-17T20:32:37.977Z,44.03
2023-01-17T20:38:10.468Z,43.97
2023-01-17T20:43:39.561Z,47.20
2023-01-17T20:49:13.363Z,57.50
2023-01-17T20:54:44.766Z,41.60
2023-01-17T21:00:15.899Z,41.53
2023-01-17T21:05:46.863Z,49.92
2023-01-17T21:11:23.631Z,42.75
2023-01-17T21:16:52.976Z,39.50
2023-01-17T21:22:22.108Z,44.05
2023-01-17T21:27:53.172Z,43.70
2023-01-17T21:33:31.499Z,34.40
2023-01-17T21:39:05.306Z,50.22
2023-01-17T21:44:38.140Z,40.28
2023-01-17T21:50:07.343Z,39.53
2023-01-17T21:55:54.343Z,38.10
2023-01-17T22:01:25.926Z,48.10
2023-01-17T22:06:54.470Z,40.30
2023-01-17T22:12:23.816Z,41.42
2023-01-17T22:17:53.899Z,43.13
2023-01-17T22:23:22.564Z,37.38
2023-01-17T22:28:51.379Z,34.95
2023-01-17T22:34:22.814Z,39.95
2023-01-17T22:39:51.710Z,39.10
